Time;durP1;ratioP1;P1;durP2;ratioP2;P2;SDS_P1;SDS_P2;PMS_P1;PMS_P2;Temp;Humidity;BMP_temperature;BMP_pressure;BME280_temperature;BME280_humidity;BME280_pressure;Samples;Min_cycle;Max_cycle;Signal;HPM_P1;HPM_P2
2023/08/22 00:00:00;;;;;;;;;;;;;;;;;;6192292;28;19918;-68
2023/08/22 00:03:00;;;;;;;;;;;;;;;;;;6186828;28;19910;-68
2023/08/22 00:06:00;;;;;;;;;;;;;;;;;;6189140;28;20412;-68
2023/08/22 00:09:01;;;;;;;;;;;;;;;;;;6192843;28;19927;-69
2023/08/22 00:12:01;;;;;;;;;;;;;;;;;;6190012;28;19914;-68
2023/08/22 00:15:04;;;;;;;;;;;;;;;;;;6190227;28;19917;-73
2023/08/22 00:18:04;;;;;;;;;;;;;;;;;;6191209;28;20016;-67
2023/08/22 00:21:04;;;;;;;;;;;;;;;;;;6198872;28;19971;-67
2023/08/22 00:24:04;;;;;;;;;;;;;;;;;;5850578;28;10000591;-68
2023/08/22 00:27:04;;;;;;;;;;;;;;;;;;6190728;28;19945;-68
2023/08/22 00:30:04;;;;;;;;;;;;;;;;;;6188726;28;19916;-68
2023/08/22 00:33:04;;;;;;;;;;;;;;;;;;6191291;28;19971;-68
2023/08/22 00:36:04;;;;;;;;;;;;;;;;;;6189671;28;19948;-68
2023/08/22 00:39:05;;;;;;;;;;;;;;;;;;6189572;28;19949;-68
2023/08/22 00:42:05;;;;;;;;;;;;;;;;;;6182503;28;19913;-68
2023/08/22 00:45:05;;;;;;;;;;;;;;;;;;6187014;28;20388;-68
2023/08/22 00:48:05;;;;;;;;;;;;;;;;;;6180784;28;19910;-67
2023/08/22 00:51:05;;;;;;;;;;;;;;;;;;6185540;28;19910;-68
2023/08/22 00:54:05;;;;;;;;;;;;;;;;;;6189892;28;19910;-68
2023/08/22 00:57:05;;;;;;;;;;;;;;;;;;6187686;28;20431;-73
2023/08/22 01:00:10;;;;;;;;;;;;;;;;;;6187902;28;20024;-68
2023/08/22 01:03:10;;;;;;;;;;;;;;;;;;6183252;28;19972;-68
2023/08/22 01:06:10;;;;;;;;;;;;;;;;;;6188025;28;19913;-68
2023/08/22 01:09:10;;;;;;;;;;;;;;;;;;6190243;28;20292;-68
2023/08/22 01:12:10;;;;;;;;;;;;;;;;;;6192825;28;19956;-68
2023/08/22 01:15:11;;;;;;;;;;;;;;;;;;6189202;28;19918;-68
2023/08/22 01:18:13;;;;;;;;;;;;;;;;;;6189884;28;19937;-68
2023/08/22 01:21:13;;;;;;;;;;;;;;;;;;6204938;28;19971;-68
2023/08/22 01:24:14;;;;;;;;;;;;;;;;;;6197015;28;19911;-68
2023/08/22 01:27:14;;;;;;;;;;;;;;;;;;6196864;28;19909;-68
2023/08/22 01:30:14;;;;;;;;;;;;;;;;;;6186117;28;20005;-68
2023/08/22 01:33:14;;;;;;;;;;;;;;;;;;6194859;28;19909;-68
2023/08/22 01:36:14;;;;;;;;;;;;;;;;;;6191457;28;19910;-68
2023/08/22 01:39:14;;;;;;;;;;;;;;;;;;6195489;28;19914;-67
2023/08/22 01:42:15;;;;;;;;;;;;;;;;;;6194020;28;19910;-70
2023/08/22 01:45:15;;;;;;;;;;;;;;;;;;6193091;28;20360;-70
2023/08/22 01:48:15;;;;;;;;;;;;;;;;;;6196650;28;19906;-68
2023/08/22 01:51:16;;;;;;;;;;;;;;;;;;6190473;28;19968;-68
2023/08/22 01:54:16;;;;;;;;;;;;;;;;;;6195746;28;20391;-69
2023/08/22 01:57:16;;;;;;;;;;;;;;;;;;6197192;28;19964;-69
2023/08/22 02:00:16;;;;;;;;;;;;;;;;;;6193187;28;19913;-69
2023/08/22 02:03:16;;;;;;;;;;;;;;;;;;6192761;28;19968;-69
2023/08/22 02:06:16;;;;;;;;;;;;;;;;;;6196438;28;20012;-69
2023/08/22 02:09:17;;;;;;;;;;;;;;;;;;6193219;28;20000;-68
2023/08/22 02:12:17;;;;;;;;;;;;;;;;;;6194476;28;20412;-73
2023/08/22 02:15:19;;;;;;;;;;;;;;;;;;6192543;28;20055;-68
2023/08/22 02:18:19;;;;;;;;;;;;;;;;;;6196406;28;20342;-68
2023/08/22 02:21:20;;;;;;;;;;;;;;;;;;6195750;28;20387;-69
2023/08/22 02:24:20;;;;;;;;;;;;;;;;;;6193129;28;20045;-68
2023/08/22 02:27:20;;;;;;;;;;;;;;;;;;6193302;28;19985;-69
2023/08/22 02:30:20;;;;;;;;;;;;;;;;;;6193682;28;19916;-69
2023/08/22 02:33:20;;;;;;;;;;;;;;;;;;6192465;28;19914;-69
2023/08/22 02:36:20;;;;;;;;;;;;;;;;;;6206237;28;19989;-68
2023/08/22 02:39:20;;;;;;;;;;;;;;;;;;6190190;28;19922;-68
2023/08/22 02:42:21;;;;;;;;;;;;;;;;;;6197858;28;19992;-68
2023/08/22 02:45:21;;;;;;;;;;;;;;;;;;6205564;28;19905;-68
2023/08/22 02:48:21;;;;;;;;;;;;;;;;;;6197891;28;20442;-70
2023/08/22 02:51:21;;;;;;;;;;;;;;;;;;6201315;28;19906;-69
2023/08/22 02:54:21;;;;;;;;;;;;;;;;;;6197285;28;20364;-74
2023/08/22 02:57:21;;;;;;;;;;;;;;;;;;6215955;28;19956;-69
2023/08/22 03:00:21;;;;;;;;;;;;;;;;;;6196918;28;19918;-69
2023/08/22 03:03:21;;;;;;;;;;;;;;;;;;6198117;28;19913;-68
2023/08/22 03:06:22;;;;;;;;;;;;;;;;;;6197476;28;19989;-68
2023/08/22 03:09:22;;;;;;;;;;;;;;;;;;6197223;28;19918;-68
2023/08/22 03:12:22;;;;;;;;;;;;;;;;;;6208261;28;20151;-68
2023/08/22 03:15:22;;;;;;;;;;;;;;;;;;6198844;28;19949;-68
2023/08/22 03:18:23;;;;;;;;;;;;;;;;;;6198831;28;20012;-69
2023/08/22 03:21:23;;;;;;;;;;;;;;;;;;6194365;28;19985;-69
2023/08/22 03:24:23;;;;;;;;;;;;;;;;;;6198785;28;20008;-69
2023/08/22 03:27:23;;;;;;;;;;;;;;;;;;6175279;28;19914;-69
2023/08/22 03:30:23;;;;;;;;;;;;;;;;;;6193010;28;19914;-69
2023/08/22 03:33:23;;;;;;;;;;;;;;;;;;6192178;28;20367;-69
2023/08/22 03:36:23;;;;;;;;;;;;;;;;;;6194455;28;19909;-73
2023/08/22 03:39:24;;;;;;;;;;;;;;;;;;6185854;28;19920;-68
2023/08/22 03:42:24;;;;;;;;;;;;;;;;;;6187148;28;19957;-68
2023/08/22 03:45:24;;;;;;;;;;;;;;;;;;6191007;28;20008;-69
2023/08/22 03:48:24;;;;;;;;;;;;;;;;;;6199781;28;19949;-68
2023/08/22 03:51:24;;;;;;;;;;;;;;;;;;6198859;28;20000;-68
2023/08/22 03:54:24;;;;;;;;;;;;;;;;;;6178955;28;20072;-69
2023/08/22 03:57:24;;;;;;;;;;;;;;;;;;6197681;28;19910;-69
2023/08/22 04:00:25;;;;;;;;;;;;;;;;;;6201435;28;20316;-69
2023/08/22 04:03:25;;;;;;;;;;;;;;;;;;6203740;28;19910;-68
2023/08/22 04:06:25;;;;;;;;;;;;;;;;;;6202806;28;20004;-69
2023/08/22 04:09:25;;;;;;;;;;;;;;;;;;6215743;28;20356;-68
2023/08/22 04:12:27;;;;;;;;;;;;;;;;;;6173876;28;19926;-69
2023/08/22 04:15:27;;;;;;;;;;;;;;;;;;6195737;28;20402;-68
2023/08/22 04:18:27;;;;;;;;;;;;;;;;;;6212479;28;19945;-70
2023/08/22 04:21:27;;;;;;;;;;;;;;;;;;6180872;28;19918;-69
2023/08/22 04:24:27;;;;;;;;;;;;;;;;;;6181881;28;19921;-69
2023/08/22 04:27:27;;;;;;;;;;;;;;;;;;6186416;28;19932;-69
2023/08/22 04:30:27;;;;;;;;;;;;;;;;;;6188669;28;19913;-68
2023/08/22 04:33:28;;;;;;;;;;;;;;;;;;6188004;28;19925;-68
2023/08/22 04:36:28;;;;;;;;;;;;;;;;;;6196951;28;19932;-68
2023/08/22 04:39:28;;;;;;;;;;;;;;;;;;6197393;28;19993;-69
2023/08/22 04:42:28;;;;;;;;;;;;;;;;;;6203555;28;19937;-69
2023/08/22 04:45:29;;;;;;;;;;;;;;;;;;6179201;28;19913;-69
2023/08/22 04:48:30;;;;;;;;;;;;;;;;;;6187712;28;19949;-69
2023/08/22 04:51:30;;;;;;;;;;;;;;;;;;6189660;28;19910;-69
2023/08/22 04:54:30;;;;;;;;;;;;;;;;;;6191752;28;19916;-69
2023/08/22 04:57:30;;;;;;;;;;;;;;;;;;6200525;28;19932;-69
2023/08/22 05:00:30;;;;;;;;;;;;;;;;;;6190695;28;20303;-68
2023/08/22 05:03:30;;;;;;;;;;;;;;;;;;6194682;28;19967;-69
2023/08/22 05:06:30;;;;;;;;;;;;;;;;;;6193131;28;19914;-74
2023/08/22 05:09:30;;;;;;;;;;;;;;;;;;6192442;28;20391;-71
2023/08/22 05:12:31;;;;;;;;;;;;;;;;;;6199709;28;19913;-71
2023/08/22 05:15:31;;;;;;;;;;;;;;;;;;6188421;28;19945;-71
2023/08/22 05:18:31;;;;;;;;;;;;;;;;;;6185802;28;19952;-70
2023/08/22 05:21:31;;;;;;;;;;;;;;;;;;6192296;28;19996;-71
2023/08/22 05:24:31;;;;;;;;;;;;;;;;;;6181213;28;19910;-75
2023/08/22 05:27:31;;;;;;;;;;;;;;;;;;6169600;28;19913;-71
2023/08/22 05:30:31;;;;;;;;;;;;;;;;;;6184425;28;19987;-71
2023/08/22 05:33:31;;;;;;;;;;;;;;;;;;6189818;28;19941;-70
2023/08/22 05:36:31;;;;;;;;;;;;;;;;;;6192237;28;19981;-69
2023/08/22 05:39:32;;;;;;;;;;;;;;;;;;6192628;28;19940;-71
2023/08/22 05:42:32;;;;;;;;;;;;;;;;;;6196897;28;20345;-72
2023/08/22 05:45:33;;;;;;;;;;;;;;;;;;6193238;28;19918;-71
2023/08/22 05:48:34;;;;;;;;;;;;;;;;;;6191564;28;20076;-70
2023/08/22 05:51:34;;;;;;;;;;;;;;;;;;6197235;28;19960;-73
2023/08/22 05:54:34;;;;;;;;;;;;;;;;;;6195738;28;19968;-78
2023/08/22 05:57:34;;;;;;;;;;;;;;;;;;6194307;28;19921;-76
2023/08/22 06:00:34;;;;;;;;;;;;;;;;;;6200142;28;20106;-74
2023/08/22 06:03:34;;;;;;;;;;;;;;;;;;6198550;28;20008;-75
2023/08/22 06:06:34;;;;;;;;;;;;;;;;;;6191702;28;19940;-76
2023/08/22 06:09:34;;;;;;;;;;;;;;;;;;6187084;28;20300;-76
2023/08/22 06:12:34;;;;;;;;;;;;;;;;;;6181134;28;19918;-75
2023/08/22 06:15:35;;;;;;;;;;;;;;;;;;6187188;28;19949;-75
2023/08/22 06:18:35;;;;;;;;;;;;;;;;;;6183757;28;20008;-73
2023/08/22 06:21:35;;;;;;;;;;;;;;;;;;6181799;28;19953;-70
2023/08/22 06:24:35;;;;;;;;;;;;;;;;;;6184312;28;19917;-72
2023/08/22 06:27:35;;;;;;;;;;;;;;;;;;6178823;28;19909;-72
2023/08/22 06:30:35;;;;;;;;;;;;;;;;;;6180985;28;19965;-71
2023/08/22 06:33:35;;;;;;;;;;;;;;;;;;6180513;28;19965;-68
2023/08/22 06:36:35;;;;;;;;;;;;;;;;;;6188590;28;19917;-70
2023/08/22 06:39:36;;;;;;;;;;;;;;;;;;6183116;28;19918;-70
2023/08/22 06:42:36;;;;;;;;;;;;;;;;;;6182604;28;19910;-72
2023/08/22 06:45:36;;;;;;;;;;;;;;;;;;6186187;28;19964;-68
2023/08/22 06:48:36;;;;;;;;;;;;;;;;;;6183070;28;19952;-68
2023/08/22 06:51:36;;;;;;;;;;;;;;;;;;6185989;28;19967;-67
2023/08/22 06:54:36;;;;;;;;;;;;;;;;;;6180736;28;20557;-66
2023/08/22 06:57:36;;;;;;;;;;;;;;;;;;6177911;28;20656;-76
2023/08/22 07:00:36;;;;;;;;;;;;;;;;;;6179656;28;19926;-67
2023/08/22 07:03:36;;;;;;;;;;;;;;;;;;6166779;28;19914;-67
2023/08/22 07:06:37;;;;;;;;;;;;;;;;;;6181298;28;19917;-69
2023/08/22 07:09:37;;;;;;;;;;;;;;;;;;6182343;28;22573;-67
2023/08/22 07:12:37;;;;;;;;;;;;;;;;;;6185745;28;19952;-67
2023/08/22 07:15:37;;;;;;;;;;;;;;;;;;6185922;28;20080;-80
2023/08/22 07:18:38;;;;;;;;;;;;;;;;;;6195967;28;20308;-74
2023/08/22 07:21:38;;;;;;;;;;;;;;;;;;6167025;28;19914;-75
2023/08/22 07:24:38;;;;;;;;;;;;;;;;;;6167950;28;19976;-80
2023/08/22 07:27:38;;;;;;;;;;;;;;;;;;6161466;28;19985;-82
2023/08/22 07:30:38;;;;;;;;;;;;;;;;;;6161202;28;19917;-78
2023/08/22 07:33:38;;;;;;;;;;;;;;;;;;6162891;28;20016;-75
2023/08/22 07:36:38;;;;;;;;;;;;;;;;;;6163034;28;19913;-77
2023/08/22 07:39:38;;;;;;;;;;;;;;;;;;6163072;28;19922;-77
2023/08/22 07:42:39;;;;;;;;;;;;;;;;;;6160204;28;20083;-73
2023/08/22 07:45:39;;;;;;;;;;;;;;;;;;6161103;28;20365;-74
2023/08/22 07:48:39;;;;;;;;;;;;;;;;;;6160289;28;20492;-73
2023/08/22 07:51:39;;;;;;;;;;;;;;;;;;6161452;28;19918;-72
2023/08/22 07:54:39;;;;;;;;;;;;;;;;;;6160185;28;19968;-83
2023/08/22 07:57:39;;;;;;;;;;;;;;;;;;6162709;28;19928;-71
2023/08/22 08:00:39;;;;;;;;;;;;;;;;;;6141549;28;19922;-77
2023/08/22 08:03:40;;;;;;;;;;;;;;;;;;6143985;28;19926;-88
2023/08/22 08:06:40;;;;;;;;;;;;;;;;;;6157496;28;19918;-85
2023/08/22 08:09:40;;;;;;;;;;;;;;;;;;6149434;28;20449;-71
2023/08/22 08:12:40;;;;;;;;;;;;;;;;;;6147040;28;19914;-87
2023/08/22 08:15:41;;;;;;;;;;;;;;;;;;6144528;28;19917;-77
2023/08/22 08:18:41;;;;;;;;;;;;;;;;;;6155953;28;20052;-83
2023/08/22 08:21:41;;;;;;;;;;;;;;;;;;6153406;28;19918;-76
2023/08/22 08:24:42;;;;;;;;;;;;;;;;;;6149449;28;19914;-80
2023/08/22 08:27:42;;;;;;;;;;;;;;;;;;6148666;28;20799;-87
2023/08/22 08:30:42;;;;;;;;;;;;;;;;;;6150362;28;20365;-78
2023/08/22 08:33:42;;;;;;;;;;;;;;;;;;6155463;28;19918;-80
2023/08/22 08:36:42;;;;;;;;;;;;;;;;;;6155321;28;19919;-79
2023/08/22 08:39:42;;;;;;;;;;;;;;;;;;6150162;28;19953;-75
2023/08/22 08:42:42;;;;;;;;;;;;;;;;;;6153368;28;19954;-84
2023/08/22 08:45:42;;;;;;;;;;;;;;;;;;6149557;28;20048;-85
2023/08/22 08:48:42;;;;;;;;;;;;;;;;;;6148879;28;20248;-87
2023/08/22 08:51:43;;;;;;;;;;;;;;;;;;6151254;28;19937;-83
2023/08/22 08:54:43;;;;;;;;;;;;;;;;;;6149339;28;20783;-76
2023/08/22 08:57:43;;;;;;;;;;;;;;;;;;6149238;28;19949;-77
2023/08/22 09:00:43;;;;;;;;;;;;;;;;;;6154484;28;20743;-74
2023/08/22 09:03:44;;;;;;;;;;;;;;;;;;6168931;28;20029;-83
2023/08/22 09:06:44;;;;;;;;;;;;;;;;;;6168742;28;20016;-79
2023/08/22 09:09:44;;;;;;;;;;;;;;;;;;6163888;28;19925;-76
2023/08/22 09:12:44;;;;;;;;;;;;;;;;;;6164659;28;19997;-77
2023/08/22 09:15:45;;;;;;;;;;;;;;;;;;6165931;28;19992;-76
2023/08/22 09:18:45;;;;;;;;;;;;;;;;;;6168979;28;19948;-86
2023/08/22 09:21:45;;;;;;;;;;;;;;;;;;6168700;28;20309;-87
2023/08/22 09:24:45;;;;;;;;;;;;;;;;;;6165260;28;19918;-82
2023/08/22 09:27:45;;;;;;;;;;;;;;;;;;6165583;28;21291;-74
2023/08/22 09:30:45;;;;;;;;;;;;;;;;;;6165218;28;19924;-76
2023/08/22 09:33:45;;;;;;;;;;;;;;;;;;6165366;28;20656;-76
2023/08/22 09:36:46;;;;;;;;;;;;;;;;;;6153729;28;20585;-80
2023/08/22 09:39:46;;;;;;;;;;;;;;;;;;6163863;28;20462;-78
2023/08/22 09:42:47;;;;;;;;;;;;;;;;;;6165298;28;19914;-83
2023/08/22 09:45:47;;;;;;;;;;;;;;;;;;6166398;28;20342;-86
2023/08/22 09:48:47;;;;;;;;;;;;;;;;;;6165319;28;19914;-81
2023/08/22 09:51:47;;;;;;;;;;;;;;;;;;6170669;28;19918;-86
2023/08/22 09:54:47;;;;;;;;;;;;;;;;;;6167144;28;19977;-77
2023/08/22 09:57:47;;;;;;;;;;;;;;;;;;6170902;28;19989;-79
2023/08/22 10:00:48;;;;;;;;;;;;;;;;;;6176394;28;19918;-79
2023/08/22 10:03:48;;;;;;;;;;;;;;;;;;6172205;28;20023;-90
2023/08/22 10:06:48;;;;;;;;;;;;;;;;;;6167728;28;19983;-82
2023/08/22 10:09:48;;;;;;;;;;;;;;;;;;6165955;28;19984;-81
2023/08/22 10:12:48;;;;;;;;;;;;;;;;;;6160936;28;19918;-79
2023/08/22 10:15:48;;;;;;;;;;;;;;;;;;6164946;28;20384;-78
2023/08/22 10:18:49;;;;;;;;;;;;;;;;;;6165395;28;19921;-87
2023/08/22 10:21:49;;;;;;;;;;;;;;;;;;6162065;28;20530;-85
2023/08/22 10:24:49;;;;;;;;;;;;;;;;;;6163767;28;20013;-79
2023/08/22 10:27:49;;;;;;;;;;;;;;;;;;6161711;28;19917;-79
2023/08/22 10:30:49;;;;;;;;;;;;;;;;;;6164945;28;19993;-73
2023/08/22 10:33:49;;;;;;;;;;;;;;;;;;6164481;28;20411;-84
2023/08/22 10:36:49;;;;;;;;;;;;;;;;;;6165881;28;20058;-84
2023/08/22 10:39:50;;;;;;;;;;;;;;;;;;6163757;28;19921;-82
2023/08/22 10:42:50;;;;;;;;;;;;;;;;;;6167219;28;19914;-65
2023/08/22 10:45:50;;;;;;;;;;;;;;;;;;6161116;28;19975;-67
2023/08/22 10:48:50;;;;;;;;;;;;;;;;;;6160611;28;19922;-67
2023/08/22 10:51:51;;;;;;;;;;;;;;;;;;6160327;28;19916;-67
2023/08/22 10:54:51;;;;;;;;;;;;;;;;;;6161009;28;19924;-68
2023/08/22 10:57:51;;;;;;;;;;;;;;;;;;6160977;28;19922;-67
2023/08/22 11:00:51;;;;;;;;;;;;;;;;;;6160235;28;19925;-72
2023/08/22 11:03:51;;;;;;;;;;;;;;;;;;6163596;28;20063;-67
2023/08/22 11:06:51;;;;;;;;;;;;;;;;;;6163773;28;19956;-67
2023/08/22 11:09:52;;;;;;;;;;;;;;;;;;6163243;28;19937;-69
2023/08/22 11:12:52;;;;;;;;;;;;;;;;;;5817241;28;9999803;-68
2023/08/22 11:15:52;;;;;;;;;;;;;;;;;;6161148;28;19918;-70
2023/08/22 11:18:52;;;;;;;;;;;;;;;;;;6170358;28;20419;-69
2023/08/22 11:21:52;;;;;;;;;;;;;;;;;;6163647;28;19934;-72
2023/08/22 11:24:53;;;;;;;;;;;;;;;;;;6161612;28;19918;-67
2023/08/22 11:27:53;;;;;;;;;;;;;;;;;;6157329;28;19918;-66
2023/08/22 11:30:53;;;;;;;;;;;;;;;;;;6161789;28;19996;-66
2023/08/22 11:33:53;;;;;;;;;;;;;;;;;;6163566;28;19984;-67
2023/08/22 11:36:53;;;;;;;;;;;;;;;;;;6163438;28;20308;-67
2023/08/22 11:39:53;;;;;;;;;;;;;;;;;;6163292;28;20015;-70
2023/08/22 11:42:53;;;;;;;;;;;;;;;;;;6158535;28;19957;-71
2023/08/22 11:45:54;;;;;;;;;;;;;;;;;;6159901;28;20143;-67
2023/08/22 11:48:54;;;;;;;;;;;;;;;;;;6158389;28;20395;-68
2023/08/22 11:51:54;;;;;;;;;;;;;;;;;;6162366;28;19953;-67
2023/08/22 11:54:54;;;;;;;;;;;;;;;;;;6166758;28;20767;-75
2023/08/22 11:57:55;;;;;;;;;;;;;;;;;;6166811;28;19918;-79
2023/08/22 12:00:55;;;;;;;;;;;;;;;;;;6165741;28;20320;-84
2023/08/22 12:03:56;;;;;;;;;;;;;;;;;;6162846;28;19917;-87
2023/08/22 12:06:56;;;;;;;;;;;;;;;;;;6163172;28;19925;-86
2023/08/22 12:09:56;;;;;;;;;;;;;;;;;;6165986;28;19921;-84
2023/08/22 12:12:57;;;;;;;;;;;;;;;;;;6161991;28;19917;-79
2023/08/22 12:15:57;;;;;;;;;;;;;;;;;;6161970;28;19924;-83
2023/08/22 12:18:57;;;;;;;;;;;;;;;;;;6159418;28;19929;-78
2023/08/22 12:21:59;;;;;;;;;;;;;;;;;;6160611;28;19972;-77
2023/08/22 12:24:59;;;;;;;;;;;;;;;;;;6158836;28;19917;-76
2023/08/22 12:28:00;;;;;;;;;;;;;;;;;;6165752;28;19925;-82
2023/08/22 12:31:00;;;;;;;;;;;;;;;;;;6170693;28;20304;-79
2023/08/22 12:34:00;;;;;;;;;;;;;;;;;;6168841;28;19917;-80
2023/08/22 12:37:00;;;;;;;;;;;;;;;;;;6171100;28;19918;-74
2023/08/22 12:40:01;;;;;;;;;;;;;;;;;;6170858;28;19929;-80
2023/08/22 12:43:01;;;;;;;;;;;;;;;;;;6168360;28;19923;-75
2023/08/22 12:46:01;;;;;;;;;;;;;;;;;;6171080;28;19914;-82
2023/08/22 12:49:02;;;;;;;;;;;;;;;;;;6174554;28;19918;-74
2023/08/22 12:52:02;;;;;;;;;;;;;;;;;;6163477;28;19917;-78
2023/08/22 12:55:02;;;;;;;;;;;;;;;;;;6177882;28;19914;-91
2023/08/22 12:58:02;;;;;;;;;;;;;;;;;;6169206;28;19917;-82
2023/08/22 13:01:03;;;;;;;;;;;;;;;;;;6163791;28;19932;-74
2023/08/22 13:04:03;;;;;;;;;;;;;;;;;;6176251;28;20374;-87
2023/08/22 13:07:03;;;;;;;;;;;;;;;;;;6174429;28;19918;-79
2023/08/22 13:10:04;;;;;;;;;;;;;;;;;;6167632;28;20439;-82
2023/08/22 13:13:05;;;;;;;;;;;;;;;;;;6170015;28;19917;-81
2023/08/22 13:16:05;;;;;;;;;;;;;;;;;;6168734;28;20013;-81
2023/08/22 13:19:05;;;;;;;;;;;;;;;;;;6171439;28;20633;-90
2023/08/22 13:22:05;;;;;;;;;;;;;;;;;;6171033;28;20356;-86
2023/08/22 13:25:06;;;;;;;;;;;;;;;;;;6165457;28;19951;-81
2023/08/22 13:28:06;;;;;;;;;;;;;;;;;;6166329;28;19933;-81
2023/08/22 13:31:06;;;;;;;;;;;;;;;;;;6176235;28;20003;-80
2023/08/22 13:34:06;;;;;;;;;;;;;;;;;;6168265;28;19924;-79
2023/08/22 13:37:06;;;;;;;;;;;;;;;;;;6171931;28;19977;-80
2023/08/22 13:40:07;;;;;;;;;;;;;;;;;;6172382;28;19948;-81
2023/08/22 13:43:07;;;;;;;;;;;;;;;;;;6165577;28;19941;-79
2023/08/22 13:46:07;;;;;;;;;;;;;;;;;;6165106;28;20981;-78
2023/08/22 13:49:07;;;;;;;;;;;;;;;;;;6163912;28;20017;-80
2023/08/22 13:52:07;;;;;;;;;;;;;;;;;;6172521;28;20056;-76
2023/08/22 13:55:08;;;;;;;;;;;;;;;;;;6164917;28;19945;-74
2023/08/22 13:58:08;;;;;;;;;;;;;;;;;;6167082;28;20347;-73
2023/08/22 14:01:09;;;;;;;;;;;;;;;;;;6162399;28;19926;-89
2023/08/22 14:04:09;;;;;;;;;;;;;;;;;;6163992;28;20471;-77
2023/08/22 14:07:10;;;;;;;;;;;;;;;;;;6164816;28;20000;-80
2023/08/22 14:10:10;;;;;;;;;;;;;;;;;;6164042;28;21560;-75
2023/08/22 14:13:10;;;;;;;;;;;;;;;;;;6163584;28;20642;-73
2023/08/22 14:16:10;;;;;;;;;;;;;;;;;;6168571;28;19914;-81
2023/08/22 14:19:12;;;;;;;;;;;;;;;;;;6167660;28;19928;-80
2023/08/22 14:22:12;;;;;;;;;;;;;;;;;;6166090;28;19913;-79
2023/08/22 14:25:12;;;;;;;;;;;;;;;;;;6169404;28;19984;-79
2023/08/22 14:28:12;;;;;;;;;;;;;;;;;;6161150;28;19924;-75
2023/08/22 14:31:12;;;;;;;;;;;;;;;;;;6161792;28;20358;-74
2023/08/22 14:34:13;;;;;;;;;;;;;;;;;;6163800;28;20388;-75
2023/08/22 14:37:13;;;;;;;;;;;;;;;;;;6162841;28;19914;-78
2023/08/22 14:40:13;;;;;;;;;;;;;;;;;;6162187;28;20028;-78
2023/08/22 14:43:13;;;;;;;;;;;;;;;;;;6159882;28;19965;-76
2023/08/22 14:46:14;;;;;;;;;;;;;;;;;;6150903;28;19993;-77
2023/08/22 14:49:14;;;;;;;;;;;;;;;;;;6160852;28;21160;-77
2023/08/22 14:52:14;;;;;;;;;;;;;;;;;;6162739;28;20003;-77
2023/08/22 14:55:15;;;;;;;;;;;;;;;;;;6164704;28;20380;-77
2023/08/22 14:58:15;;;;;;;;;;;;;;;;;;6160858;28;19929;-82
2023/08/22 15:01:17;;;;;;;;;;;;;;;;;;6158007;28;19965;-75
2023/08/22 15:04:18;;;;;;;;;;;;;;;;;;6161368;28;19918;-77
2023/08/22 15:07:18;;;;;;;;;;;;;;;;;;6165204;28;19925;-90
2023/08/22 15:10:18;;;;;;;;;;;;;;;;;;6170699;28;20009;-88
2023/08/22 15:13:19;;;;;;;;;;;;;;;;;;6171477;28;19992;-79
2023/08/22 15:16:19;;;;;;;;;;;;;;;;;;6164889;28;20557;-80
2023/08/22 15:19:19;;;;;;;;;;;;;;;;;;6159420;28;20012;-77
2023/08/22 15:22:19;;;;;;;;;;;;;;;;;;6158829;28;20316;-74
2023/08/22 15:25:19;;;;;;;;;;;;;;;;;;6157415;28;19924;-75
2023/08/22 15:28:19;;;;;;;;;;;;;;;;;;6157475;28;19925;-75
2023/08/22 15:31:20;;;;;;;;;;;;;;;;;;6160684;28;19992;-80
2023/08/22 15:34:22;;;;;;;;;;;;;;;;;;6161884;28;20114;-86
2023/08/22 15:37:22;;;;;;;;;;;;;;;;;;6161580;28;20041;-85
2023/08/22 15:40:22;;;;;;;;;;;;;;;;;;6162835;28;19922;-75
2023/08/22 15:43:23;;;;;;;;;;;;;;;;;;6162436;28;20016;-77
2023/08/22 15:46:23;;;;;;;;;;;;;;;;;;6167623;28;21141;-78
2023/08/22 15:49:23;;;;;;;;;;;;;;;;;;6163972;28;20012;-80
2023/08/22 15:52:23;;;;;;;;;;;;;;;;;;6166284;28;20012;-79
2023/08/22 15:55:23;;;;;;;;;;;;;;;;;;6162571;28;19925;-79
2023/08/22 15:58:23;;;;;;;;;;;;;;;;;;6165178;28;19918;-82
2023/08/22 16:01:24;;;;;;;;;;;;;;;;;;6164513;28;19926;-78
2023/08/22 16:04:24;;;;;;;;;;;;;;;;;;6179292;28;19918;-79
2023/08/22 16:07:24;;;;;;;;;;;;;;;;;;6173030;28;19921;-82
2023/08/22 16:10:24;;;;;;;;;;;;;;;;;;6173843;28;19937;-83
2023/08/22 16:13:24;;;;;;;;;;;;;;;;;;6172911;28;19918;-80
2023/08/22 16:16:24;;;;;;;;;;;;;;;;;;6163988;28;19918;-76
2023/08/22 16:19:25;;;;;;;;;;;;;;;;;;6183151;28;19976;-78
2023/08/22 16:22:25;;;;;;;;;;;;;;;;;;6176527;28;19957;-71
2023/08/22 16:25:25;;;;;;;;;;;;;;;;;;6186197;28;19914;-72
2023/08/22 16:28:25;;;;;;;;;;;;;;;;;;6191664;28;20502;-73
2023/08/22 16:31:26;;;;;;;;;;;;;;;;;;6196229;28;20000;-71
2023/08/22 16:34:26;;;;;;;;;;;;;;;;;;6209088;28;19909;-71
2023/08/22 16:37:26;;;;;;;;;;;;;;;;;;6201904;28;19920;-71
2023/08/22 16:40:26;;;;;;;;;;;;;;;;;;6190500;28;20384;-71
2023/08/22 16:43:26;;;;;;;;;;;;;;;;;;6201128;28;20681;-72
2023/08/22 16:46:27;;;;;;;;;;;;;;;;;;6190272;28;20364;-71
2023/08/22 16:49:27;;;;;;;;;;;;;;;;;;6194696;28;19913;-72
2023/08/22 16:52:27;;;;;;;;;;;;;;;;;;6198162;28;19920;-71
2023/08/22 16:55:27;;;;;;;;;;;;;;;;;;6203323;28;19989;-71
2023/08/22 16:58:27;;;;;;;;;;;;;;;;;;6202053;28;20005;-71
2023/08/22 17:01:27;;;;;;;;;;;;;;;;;;6208143;28;19917;-76
2023/08/22 17:04:27;;;;;;;;;;;;;;;;;;5849994;28;10000158;-70
2023/08/22 17:07:28;;;;;;;;;;;;;;;;;;6189201;28;20363;-69
2023/08/22 17:10:29;;;;;;;;;;;;;;;;;;6187871;28;20005;-70
2023/08/22 17:13:29;;;;;;;;;;;;;;;;;;6182625;28;19918;-71
2023/08/22 17:16:29;;;;;;;;;;;;;;;;;;6181933;28;19967;-70
2023/08/22 17:19:29;;;;;;;;;;;;;;;;;;6179398;28;19926;-70
2023/08/22 17:22:29;;;;;;;;;;;;;;;;;;6209205;28;19905;-71
2023/08/22 17:25:29;;;;;;;;;;;;;;;;;;6185509;28;19921;-71
2023/08/22 17:28:30;;;;;;;;;;;;;;;;;;6194420;28;20361;-70
2023/08/22 17:31:30;;;;;;;;;;;;;;;;;;6180975;28;19917;-72
2023/08/22 17:34:30;;;;;;;;;;;;;;;;;;6187349;28;19910;-70
2023/08/22 17:37:30;;;;;;;;;;;;;;;;;;6180096;28;19981;-70
2023/08/22 17:40:30;;;;;;;;;;;;;;;;;;6183067;28;20093;-70
2023/08/22 17:43:31;;;;;;;;;;;;;;;;;;6181934;28;19949;-71
2023/08/22 17:46:31;;;;;;;;;;;;;;;;;;6177856;28;19925;-70
2023/08/22 17:49:31;;;;;;;;;;;;;;;;;;6184026;28;19972;-71
2023/08/22 17:52:31;;;;;;;;;;;;;;;;;;6180407;28;19924;-70
2023/08/22 17:55:31;;;;;;;;;;;;;;;;;;6178265;28;19941;-70
2023/08/22 17:58:31;;;;;;;;;;;;;;;;;;6180315;28;20383;-70
2023/08/22 18:01:32;;;;;;;;;;;;;;;;;;6178007;28;20434;-70
2023/08/22 18:04:32;;;;;;;;;;;;;;;;;;6178507;28;19914;-70
2023/08/22 18:07:32;;;;;;;;;;;;;;;;;;6175860;28;19918;-70
2023/08/22 18:10:32;;;;;;;;;;;;;;;;;;6183645;28;19914;-70
2023/08/22 18:13:34;;;;;;;;;;;;;;;;;;6184796;28;19910;-70
2023/08/22 18:16:34;;;;;;;;;;;;;;;;;;6183470;28;19965;-70
2023/08/22 18:19:34;;;;;;;;;;;;;;;;;;6182145;28;19958;-71
2023/08/22 18:22:34;;;;;;;;;;;;;;;;;;6182613;28;20004;-70
2023/08/22 18:25:35;;;;;;;;;;;;;;;;;;5835641;28;10000252;-68
2023/08/22 18:28:35;;;;;;;;;;;;;;;;;;6180294;28;19984;-70
2023/08/22 18:31:35;;;;;;;;;;;;;;;;;;6184283;28;19914;-69
2023/08/22 18:34:35;;;;;;;;;;;;;;;;;;6189710;28;20451;-70
2023/08/22 18:37:35;;;;;;;;;;;;;;;;;;6181334;28;20383;-69
2023/08/22 18:40:35;;;;;;;;;;;;;;;;;;6177187;28;20111;-70
2023/08/22 18:43:35;;;;;;;;;;;;;;;;;;6179702;28;20719;-69
2023/08/22 18:46:35;;;;;;;;;;;;;;;;;;6179094;28;19934;-70
2023/08/22 18:49:36;;;;;;;;;;;;;;;;;;6185048;28;19921;-69
2023/08/22 18:52:36;;;;;;;;;;;;;;;;;;6180906;28;20024;-75
2023/08/22 18:55:36;;;;;;;;;;;;;;;;;;6176580;28;19913;-70
2023/08/22 18:58:37;;;;;;;;;;;;;;;;;;6179100;28;19940;-69
2023/08/22 19:01:39;;;;;;;;;;;;;;;;;;6179399;28;20300;-70
2023/08/22 19:04:40;;;;;;;;;;;;;;;;;;6190988;28;19932;-70
2023/08/22 19:07:40;;;;;;;;;;;;;;;;;;6195308;28;20330;-71
2023/08/22 19:10:40;;;;;;;;;;;;;;;;;;6194662;28;19925;-69
2023/08/22 19:13:40;;;;;;;;;;;;;;;;;;6186833;28;19909;-70
2023/08/22 19:16:40;;;;;;;;;;;;;;;;;;6178550;28;19968;-69
2023/08/22 19:19:41;;;;;;;;;;;;;;;;;;6186683;28;19921;-69
2023/08/22 19:22:42;;;;;;;;;;;;;;;;;;6188276;28;19945;-68
2023/08/22 19:25:42;;;;;;;;;;;;;;;;;;6191667;28;19989;-70
2023/08/22 19:28:43;;;;;;;;;;;;;;;;;;6191193;28;19917;-69
2023/08/22 19:31:43;;;;;;;;;;;;;;;;;;6197806;28;19913;-70
2023/08/22 19:34:44;;;;;;;;;;;;;;;;;;6186380;28;20459;-70
2023/08/22 19:37:44;;;;;;;;;;;;;;;;;;6178455;28;19920;-70
2023/08/22 19:40:47;;;;;;;;;;;;;;;;;;6180030;28;20360;-73
2023/08/22 19:43:47;;;;;;;;;;;;;;;;;;6172919;28;19920;-69
2023/08/22 19:46:47;;;;;;;;;;;;;;;;;;6179708;28;20423;-69
2023/08/22 19:49:47;;;;;;;;;;;;;;;;;;6179332;28;19921;-68
2023/08/22 19:52:47;;;;;;;;;;;;;;;;;;6177917;28;19913;-69
2023/08/22 19:55:49;;;;;;;;;;;;;;;;;;6176161;28;20109;-68
2023/08/22 19:58:49;;;;;;;;;;;;;;;;;;6174634;28;19921;-69
2023/08/22 20:01:49;;;;;;;;;;;;;;;;;;6177354;28;19980;-69
2023/08/22 20:04:49;;;;;;;;;;;;;;;;;;6176294;28;20397;-69
2023/08/22 20:07:52;;;;;;;;;;;;;;;;;;6177398;28;19932;-68
2023/08/22 20:10:52;;;;;;;;;;;;;;;;;;6176732;28;20020;-68
2023/08/22 20:13:52;;;;;;;;;;;;;;;;;;6185432;28;20686;-69
2023/08/22 20:16:53;;;;;;;;;;;;;;;;;;6178845;28;20476;-69
2023/08/22 20:19:53;;;;;;;;;;;;;;;;;;6179785;28;20004;-68
2023/08/22 20:22:53;;;;;;;;;;;;;;;;;;6178858;28;19914;-68
2023/08/22 20:25:53;;;;;;;;;;;;;;;;;;6176977;28;20643;-69